sensor_id;sensor_type;location;lat;lon;timestamp;pressure;altitude;pressure_sealevel;temperature;humidity
36380;BME280;22411;53.016;18.632;2022-11-12T00:00:33;102090.97;;;9.94;100.00
36380;BME280;22411;53.016;18.632;2022-11-12T00:03:10;102079.69;;;9.95;100.00
36380;BME280;22411;53.016;18.632;2022-11-12T00:05:36;102094.41;;;9.94;100.00
36380;BME280;22411;53.016;18.632;2022-11-12T00:08:02;102090.13;;;9.93;100.00
36380;BME280;22411;53.016;18.632;2022-11-12T00:10:29;102089.28;;;9.93;100.00
36380;BME280;22411;53.016;18.632;2022-11-12T00:12:57;102090.31;;;9.89;100.00
36380;BME280;22411;53.016;18.632;2022-11-12T00:15:23;102099.06;;;9.86;100.00
36380;BME280;22411;53.016;18.632;2022-11-12T00:17:49;102084.53;;;9.82;100.00
36380;BME280;22411;53.016;18.632;2022-11-12T00:20:15;102100.16;;;9.81;100.00
36380;BME280;22411;53.016;18.632;2022-11-12T00:22:41;102098.44;;;9.80;100.00
36380;BME280;22411;53.016;18.632;2022-11-12T00:25:07;102085.56;;;9.78;100.00
36380;BME280;22411;53.016;18.632;2022-11-12T00:27:34;102090.50;;;9.84;100.00
36380;BME280;22411;53.016;18.632;2022-11-12T00:30:00;102100.84;;;9.84;100.00
36380;BME280;22411;53.016;18.632;2022-11-12T00:32:26;102094.72;;;9.87;100.00
36380;BME280;22411;53.016;18.632;2022-11-12T00:34:52;102089.72;;;9.82;100.00
36380;BME280;22411;53.016;18.632;2022-11-12T00:37:18;102098.31;;;9.83;100.00
36380;BME280;22411;53.016;18.632;2022-11-12T00:39:45;102098.19;;;9.86;100.00
36380;BME280;22411;53.016;18.632;2022-11-12T00:42:11;102099.16;;;9.83;100.00
36380;BME280;22411;53.016;18.632;2022-11-12T00:44:37;102099.34;;;9.79;100.00
36380;BME280;22411;53.016;18.632;2022-11-12T00:47:03;102096.94;;;9.74;100.00
36380;BME280;22411;53.016;18.632;2022-11-12T00:49:29;102105.44;;;9.78;100.00
36380;BME280;22411;53.016;18.632;2022-11-12T00:51:55;102095.06;;;9.78;100.00
36380;BME280;22411;53.016;18.632;2022-11-12T00:54:21;102095.81;;;9.81;100.00
36380;BME280;22411;53.016;18.632;2022-11-12T00:56:47;102105.31;;;9.81;100.00
36380;BME280;22411;53.016;18.632;2022-11-12T00:59:13;102100.44;;;9.73;100.00
36380;BME280;22411;53.016;18.632;2022-11-12T01:01:40;102102.25;;;9.71;100.00
36380;BME280;22411;53.016;18.632;2022-11-12T01:04:06;102101.41;;;9.71;100.00
36380;BME280;22411;53.016;18.632;2022-11-12T01:06:33;102106.69;;;9.67;100.00
36380;BME280;22411;53.016;18.632;2022-11-12T01:08:59;102111.16;;;9.64;100.00
36380;BME280;22411;53.016;18.632;2022-11-12T01:11:27;102112.13;;;9.61;100.00
36380;BME280;22411;53.016;18.632;2022-11-12T01:14:00;102111.28;;;9.61;100.00
36380;BME280;22411;53.016;18.632;2022-11-12T01:16:29;102109.47;;;9.63;100.00
36380;BME280;22411;53.016;18.632;2022-11-12T01:18:57;102110.38;;;9.62;100.00
36380;BME280;22411;53.016;18.632;2022-11-12T01:21:27;102113.06;;;9.59;100.00
36380;BME280;22411;53.016;18.632;2022-11-12T01:23:56;102106.09;;;9.61;100.00
36380;BME280;22411;53.016;18.632;2022-11-12T01:26:23;102100.84;;;9.62;100.00
36380;BME280;22411;53.016;18.632;2022-11-12T01:28:49;102106.13;;;9.59;100.00
36380;BME280;22411;53.016;18.632;2022-11-12T01:33:52;102108.72;;;9.59;100.00
36380;BME280;22411;53.016;18.632;2022-11-12T01:36:19;102115.72;;;9.57;100.00
36380;BME280;22411;53.016;18.632;2022-11-12T01:38:46;102113.88;;;9.61;100.00
36380;BME280;22411;53.016;18.632;2022-11-12T01:41:16;102113.06;;;9.59;100.00
36380;BME280;22411;53.016;18.632;2022-11-12T01:43:42;102113.06;;;9.59;100.00
36380;BME280;22411;53.016;18.632;2022-11-12T01:49:02;102115.97;;;9.51;100.00
36380;BME280;22411;53.016;18.632;2022-11-12T01:51:35;102114.31;;;9.49;100.00
36380;BME280;22411;53.016;18.632;2022-11-12T01:54:06;102120.38;;;9.49;100.00
36380;BME280;22411;53.016;18.632;2022-11-12T01:56:34;102111.81;;;9.47;100.00
36380;BME280;22411;53.016;18.632;2022-11-12T01:59:07;102108.44;;;9.45;100.00
36380;BME280;22411;53.016;18.632;2022-11-12T02:01:37;102122.06;;;9.50;100.00
36380;BME280;22411;53.016;18.632;2022-11-12T02:04:03;102116.97;;;9.47;100.00
36380;BME280;22411;53.016;18.632;2022-11-12T02:06:30;102113.56;;;9.47;100.00
36380;BME280;22411;53.016;18.632;2022-11-12T02:08:57;102109.44;;;9.41;100.00
36380;BME280;22411;53.016;18.632;2022-11-12T02:11:23;102109.22;;;9.47;100.00
36380;BME280;22411;53.016;18.632;2022-11-12T02:13:51;102110.13;;;9.46;100.00
36380;BME280;22411;53.016;18.632;2022-11-12T02:18:55;102112.88;;;9.41;100.00
36380;BME280;22411;53.016;18.632;2022-11-12T02:21:22;102114.78;;;9.36;100.00
36380;BME280;22411;53.016;18.632;2022-11-12T02:26:41;102115.72;;;9.35;100.00
36380;BME280;22411;53.016;18.632;2022-11-12T02:29:09;102123.56;;;9.32;100.00
36380;BME280;22411;53.016;18.632;2022-11-12T02:31:35;102118.47;;;9.31;100.00
36380;BME280;22411;53.016;18.632;2022-11-12T02:34:02;102118.22;;;9.37;100.00
36380;BME280;22411;53.016;18.632;2022-11-12T02:36:28;102122.69;;;9.33;100.00
36380;BME280;22411;53.016;18.632;2022-11-12T02:38:54;102127.66;;;9.38;100.00
36380;BME280;22411;53.016;18.632;2022-11-12T02:41:21;102127.56;;;9.41;100.00
36380;BME280;22411;53.016;18.632;2022-11-12T02:43:47;102137.16;;;9.39;100.00
36380;BME280;22411;53.016;18.632;2022-11-12T02:46:13;102136.41;;;9.35;100.00
36380;BME280;22411;53.016;18.632;2022-11-12T02:48:40;102139.06;;;9.34;100.00
36380;BME280;22411;53.016;18.632;2022-11-12T02:51:06;102141.59;;;9.35;100.00
36380;BME280;22411;53.016;18.632;2022-11-12T02:53:32;102142.66;;;9.30;100.00
36380;BME280;22411;53.016;18.632;2022-11-12T02:55:59;102143.50;;;9.30;100.00
36380;BME280;22411;53.016;18.632;2022-11-12T02:58:26;102140.91;;;9.30;100.00
36380;BME280;22411;53.016;18.632;2022-11-12T03:00:53;102140.84;;;9.32;100.00
36380;BME280;22411;53.016;18.632;2022-11-12T03:03:19;102149.63;;;9.28;100.00
36380;BME280;22411;53.016;18.632;2022-11-12T03:05:52;102152.16;;;9.29;100.00
36380;BME280;22411;53.016;18.632;2022-11-12T03:08:18;102141.84;;;9.28;100.00
36380;BME280;22411;53.016;18.632;2022-11-12T03:10:45;102140.84;;;9.32;100.00
36380;BME280;22411;53.016;18.632;2022-11-12T03:13:11;102147.66;;;9.34;100.00
36380;BME280;22411;53.016;18.632;2022-11-12T03:15:37;102147.66;;;9.34;100.00
36380;BME280;22411;53.016;18.632;2022-11-12T03:18:03;102142.66;;;9.30;100.00
36380;BME280;22411;53.016;18.632;2022-11-12T03:20:28;102147.94;;;9.27;100.00
36380;BME280;22411;53.016;18.632;2022-11-12T03:22:57;102152.25;;;9.26;100.00
36380;BME280;22411;53.016;18.632;2022-11-12T03:25:24;102150.25;;;9.34;100.00
36380;BME280;22411;53.016;18.632;2022-11-12T03:28:11;102152.25;;;9.26;100.00
36380;BME280;22411;53.016;18.632;2022-11-12T03:30:39;102148.78;;;9.27;100.00
36380;BME280;22411;53.016;18.632;2022-11-12T03:33:07;102152.19;;;9.28;100.00
36380;BME280;22411;53.016;18.632;2022-11-12T03:35:33;102153.06;;;9.28;100.00
36380;BME280;22411;53.016;18.632;2022-11-12T03:38:00;102153.00;;;9.30;100.00
36380;BME280;22411;53.016;18.632;2022-11-12T03:40:27;102155.69;;;9.27;100.00
36380;BME280;22411;53.016;18.632;2022-11-12T03:42:53;102157.50;;;9.25;100.00
36380;BME280;22411;53.016;18.632;2022-11-12T03:45:21;102152.34;;;9.25;100.00
36380;BME280;22411;53.016;18.632;2022-11-12T03:47:50;102154.97;;;9.23;100.00
36380;BME280;22411;53.016;18.632;2022-11-12T03:50:18;102152.41;;;9.23;100.00
36380;BME280;22411;53.016;18.632;2022-11-12T03:52:54;102147.16;;;9.25;100.00
36380;BME280;22411;53.016;18.632;2022-11-12T03:55:22;102143.56;;;9.29;100.00
36380;BME280;22411;53.016;18.632;2022-11-12T03:57:50;102149.63;;;9.28;100.00
36380;BME280;22411;53.016;18.632;2022-11-12T04:00:17;102151.50;;;9.24;100.00
36380;BME280;22411;53.016;18.632;2022-11-12T04:02:44;102151.53;;;9.23;100.00
36380;BME280;22411;53.016;18.632;2022-11-12T04:05:10;102149.63;;;9.28;100.00
36380;BME280;22411;53.016;18.632;2022-11-12T04:07:59;102139.31;;;9.26;100.00
36380;BME280;22411;53.016;18.632;2022-11-12T04:10:45;102143.56;;;9.29;100.00
36380;BME280;22411;53.016;18.632;2022-11-12T04:13:11;102146.16;;;9.29;100.00
36380;BME280;22411;53.016;18.632;2022-11-12T04:16:00;102145.25;;;9.30;100.00
36380;BME280;22411;53.016;18.632;2022-11-12T04:18:47;102150.28;;;9.33;100.00
36380;BME280;22411;53.016;18.632;2022-11-12T04:21:49;102155.38;;;9.36;100.00
36380;BME280;22411;53.016;18.632;2022-11-12T04:24:27;102155.47;;;9.33;100.00
36380;BME280;22411;53.016;18.632;2022-11-12T04:27:29;102153.06;;;9.28;100.00
36380;BME280;22411;53.016;18.632;2022-11-12T04:29:55;102153.00;;;9.30;100.00
36380;BME280;22411;53.016;18.632;2022-11-12T04:32:51;102149.63;;;9.28;100.00
36380;BME280;22411;53.016;18.632;2022-11-12T04:35:20;102143.50;;;9.30;100.00
36380;BME280;22411;53.016;18.632;2022-11-12T04:37:47;102157.09;;;9.35;100.00
36380;BME280;22411;53.016;18.632;2022-11-12T04:40:21;102151.75;;;9.40;100.00
36380;BME280;22411;53.016;18.632;2022-11-12T04:43:09;102147.59;;;9.36;100.00
36380;BME280;22411;53.016;18.632;2022-11-12T04:45:54;102148.56;;;9.33;100.00
36380;BME280;22411;53.016;18.632;2022-11-12T04:48:21;102147.69;;;9.33;100.00
36380;BME280;22411;53.016;18.632;2022-11-12T04:51:02;102151.31;;;9.29;100.00
36380;BME280;22411;53.016;18.632;2022-11-12T04:53:49;102132.38;;;9.28;100.00
36380;BME280;22411;53.016;18.632;2022-11-12T04:56:15;102137.41;;;9.31;100.00
36380;BME280;22411;53.016;18.632;2022-11-12T04:58:41;102137.31;;;9.34;100.00
36380;BME280;22411;53.016;18.632;2022-11-12T05:01:07;102136.56;;;9.31;100.00
36380;BME280;22411;53.016;18.632;2022-11-12T05:03:32;102138.25;;;9.32;100.00
36380;BME280;22411;53.016;18.632;2022-11-12T05:06:03;102134.81;;;9.31;100.00
36380;BME280;22411;53.016;18.632;2022-11-12T05:08:50;102140.00;;;9.31;100.00
36380;BME280;22411;53.016;18.632;2022-11-12T05:11:15;102136.56;;;9.31;100.00
36380;BME280;22411;53.016;18.632;2022-11-12T05:13:41;102138.22;;;9.33;100.00
36380;BME280;22411;53.016;18.632;2022-11-12T05:16:07;102142.50;;;9.34;100.00
36380;BME280;22411;53.016;18.632;2022-11-12T05:18:33;102140.56;;;9.39;100.00
36380;BME280;22411;53.016;18.632;2022-11-12T05:20:59;102140.59;;;9.38;100.00
36380;BME280;22411;53.016;18.632;2022-11-12T05:23:45;102146.69;;;9.37;100.00
36380;BME280;22411;53.016;18.632;2022-11-12T05:26:11;102138.94;;;9.37;100.00
36380;BME280;22411;53.016;18.632;2022-11-12T05:28:37;102149.34;;;9.35;100.00
36380;BME280;22411;53.016;18.632;2022-11-12T05:31:03;102150.78;;;9.42;100.00
36380;BME280;22411;53.016;18.632;2022-11-12T05:33:28;102149.22;;;9.38;100.00
36380;BME280;22411;53.016;18.632;2022-11-12T05:35:55;102150.97;;;9.38;100.00
36380;BME280;22411;53.016;18.632;2022-11-12T05:38:21;102157.09;;;9.35;100.00
36380;BME280;22411;53.016;18.632;2022-11-12T05:40:47;102162.38;;;9.32;100.00
36380;BME280;22411;53.016;18.632;2022-11-12T05:43:13;102158.91;;;9.33;100.00
36380;BME280;22411;53.016;18.632;2022-11-12T05:45:42;102163.28;;;9.31;100.00
36380;BME280;22411;53.016;18.632;2022-11-12T05:48:09;102157.28;;;9.31;100.00
36380;BME280;22411;53.016;18.632;2022-11-12T05:50:35;102156.34;;;9.33;100.00
36380;BME280;22411;53.016;18.632;2022-11-12T05:53:01;102160.63;;;9.33;100.00
36380;BME280;22411;53.016;18.632;2022-11-12T05:55:27;102160.63;;;9.33;100.00
36380;BME280;22411;53.016;18.632;2022-11-12T05:57:53;102159.41;;;9.43;100.00
36380;BME280;22411;53.016;18.632;2022-11-12T06:00:18;102164.81;;;9.37;100.00
36380;BME280;22411;53.016;18.632;2022-11-12T06:02:45;102164.75;;;9.38;100.00
36380;BME280;22411;53.016;18.632;2022-11-12T06:05:11;102164.13;;;9.32;100.00
36380;BME280;22411;53.016;18.632;2022-11-12T06:07:37;102177.13;;;9.30;100.00
36380;BME280;22411;53.016;18.632;2022-11-12T06:10:03;102169.47;;;9.27;100.00
36380;BME280;22411;53.016;18.632;2022-11-12T06:12:29;102172.63;;;9.35;100.00
36380;BME280;22411;53.016;18.632;2022-11-12T06:14:56;102174.44;;;9.33;100.00
36380;BME280;22411;53.016;18.632;2022-11-12T06:17:21;102169.81;;;9.41;100.00
36380;BME280;22411;53.016;18.632;2022-11-12T06:19:47;102178.59;;;9.37;100.00
36380;BME280;22411;53.016;18.632;2022-11-12T06:22:13;102180.22;;;9.40;100.00
36380;BME280;22411;53.016;18.632;2022-11-12T06:24:40;102181.91;;;9.41;100.00
36380;BME280;22411;53.016;18.632;2022-11-12T06:27:06;102180.94;;;9.43;100.00
36380;BME280;22411;53.016;18.632;2022-11-12T06:29:32;102173.31;;;9.40;100.00
36380;BME280;22411;53.016;18.632;2022-11-12T06:31:58;102175.06;;;9.40;100.00
36380;BME280;22411;53.016;18.632;2022-11-12T06:34:24;102168.91;;;9.42;100.00
36380;BME280;22411;53.016;18.632;2022-11-12T06:36:50;102175.00;;;9.41;100.00
36380;BME280;22411;53.016;18.632;2022-11-12T06:39:15;102177.25;;;9.51;100.00
36380;BME280;22411;53.016;18.632;2022-11-12T06:41:41;102183.50;;;9.45;100.00
36380;BME280;22411;53.016;18.632;2022-11-12T06:44:07;102189.44;;;9.47;100.00
36380;BME280;22411;53.016;18.632;2022-11-12T06:46:33;102190.44;;;9.43;100.00
36380;BME280;22411;53.016;18.632;2022-11-12T06:48:59;102191.97;;;9.49;100.00
36380;BME280;22411;53.016;18.632;2022-11-12T06:51:25;102192.88;;;9.48;100.00
36380;BME280;22411;53.016;18.632;2022-11-12T06:53:51;102191.94;;;9.50;100.00
36380;BME280;22411;53.016;18.632;2022-11-12T06:56:17;102198.91;;;9.48;100.00
36380;BME280;22411;53.016;18.632;2022-11-12T06:58:43;102198.06;;;9.48;100.00
36380;BME280;22411;53.016;18.632;2022-11-12T07:01:12;102194.53;;;9.50;100.00
36380;BME280;22411;53.016;18.632;2022-11-12T07:03:39;102208.31;;;9.51;100.00
36380;BME280;22411;53.016;18.632;2022-11-12T07:06:08;102206.25;;;9.59;100.00
36380;BME280;22411;53.016;18.632;2022-11-12T07:08:35;102202.91;;;9.57;100.00
36380;BME280;22411;53.016;18.632;2022-11-12T07:11:01;102206.50;;;9.53;100.00
36380;BME280;22411;53.016;18.632;2022-11-12T07:13:29;102214.19;;;9.54;100.00
36380;BME280;22411;53.016;18.632;2022-11-12T07:15:57;102210.56;;;9.60;100.00
36380;BME280;22411;53.016;18.632;2022-11-12T07:18:25;102210.59;;;9.58;100.00
36380;BME280;22411;53.016;18.632;2022-11-12T07:20:55;102209.59;;;9.62;100.00
36380;BME280;22411;53.016;18.632;2022-11-12T07:23:22;102224.03;;;9.68;100.00
36380;BME280;22411;53.016;18.632;2022-11-12T07:25:55;102218.88;;;9.68;100.00
36380;BME280;22411;53.016;18.632;2022-11-12T07:28:21;102217.06;;;9.70;100.00
36380;BME280;22411;53.016;18.632;2022-11-12T07:30:54;102213.53;;;9.73;100.00
36380;BME280;22411;53.016;18.632;2022-11-12T07:33:20;102224.72;;;9.73;100.00
36380;BME280;22411;53.016;18.632;2022-11-12T07:35:46;102220.16;;;9.80;100.00
36380;BME280;22411;53.016;18.632;2022-11-12T07:38:12;102218.59;;;9.76;100.00
36380;BME280;22411;53.016;18.632;2022-11-12T07:40:38;102217.69;;;9.77;100.00
36380;BME280;22411;53.016;18.632;2022-11-12T07:43:04;102226.16;;;9.80;100.00
36380;BME280;22411;53.016;18.632;2022-11-12T07:45:30;102221.56;;;9.88;100.00
36380;BME280;22411;53.016;18.632;2022-11-12T07:47:59;102224.03;;;9.91;100.00
36380;BME280;22411;53.016;18.632;2022-11-12T07:50:27;102225.88;;;9.88;100.00
36380;BME280;22411;53.016;18.632;2022-11-12T07:52:53;102230.75;;;9.95;100.00
36380;BME280;22411;53.016;18.632;2022-11-12T07:55:19;102225.81;;;9.89;100.00
36380;BME280;22411;53.016;18.632;2022-11-12T07:57:45;102230.09;;;9.90;100.00
36380;BME280;22411;53.016;18.632;2022-11-12T08:00:11;102229.31;;;9.88;100.00
36380;BME280;22411;53.016;18.632;2022-11-12T08:02:37;102220.66;;;9.89;100.00
36380;BME280;22411;53.016;18.632;2022-11-12T08:05:03;102216.97;;;9.95;100.00
36380;BME280;22411;53.016;18.632;2022-11-12T08:07:30;102228.72;;;10.04;100.00
36380;BME280;22411;53.016;18.632;2022-11-12T08:09:56;102236.50;;;10.04;100.00
36380;BME280;22411;53.016;18.632;2022-11-12T08:12:23;102239.19;;;10.01;100.00
36380;BME280;22411;53.016;18.632;2022-11-12T08:14:49;102229.88;;;9.97;100.00
36380;BME280;22411;53.016;18.632;2022-11-12T08:17:15;102217.47;;;10.05;100.00
36380;BME280;22411;53.016;18.632;2022-11-12T08:19:41;102238.28;;;10.02;100.00
36380;BME280;22411;53.016;18.632;2022-11-12T08:22:06;102237.41;;;10.03;100.00
36380;BME280;22411;53.016;18.632;2022-11-12T08:24:33;102236.34;;;10.08;100.00
36380;BME280;22411;53.016;18.632;2022-11-12T08:26:58;102237.09;;;10.10;100.00
36380;BME280;22411;53.016;18.632;2022-11-12T08:29:26;102229.16;;;10.15;100.00
36380;BME280;22411;53.016;18.632;2022-11-12T08:31:52;102243.94;;;10.13;100.00
36380;BME280;22411;53.016;18.632;2022-11-12T08:34:18;102244.81;;;10.12;100.00
36380;BME280;22411;53.016;18.632;2022-11-12T08:36:44;102240.34;;;10.15;100.00
36380;BME280;22411;53.016;18.632;2022-11-12T08:39:10;102248.13;;;10.15;100.00
36380;BME280;22411;53.016;18.632;2022-11-12T08:41:36;102244.69;;;10.15;100.00
36380;BME280;22411;53.016;18.632;2022-11-12T08:44:02;102245.59;;;10.14;100.00
36380;BME280;22411;53.016;18.632;2022-11-12T08:46:28;102247.19;;;10.18;100.00
36380;BME280;22411;53.016;18.632;2022-11-12T08:48:54;102251.38;;;10.20;100.00
36380;BME280;22411;53.016;18.632;2022-11-12T08:51:20;102257.41;;;10.21;100.00
36380;BME280;22411;53.016;18.632;2022-11-12T08:53:47;102258.91;;;10.28;100.00
36380;BME280;22411;53.016;18.632;2022-11-12T08:56:13;102263.19;;;10.29;100.00
36380;BME280;22411;53.016;18.632;2022-11-12T08:58:39;102267.28;;;10.35;100.00
36380;BME280;22411;53.016;18.632;2022-11-12T09:01:06;102270.16;;;10.27;100.00
36380;BME280;22411;53.016;18.632;2022-11-12T09:03:32;102264.72;;;10.33;100.00
36380;BME280;22411;53.016;18.632;2022-11-12T09:06:02;102268.38;;;10.29;100.00
36380;BME280;22411;53.016;18.632;2022-11-12T09:08:28;102265.63;;;10.32;100.00
36380;BME280;22411;53.016;18.632;2022-11-12T09:10:56;102283.59;;;10.37;100.00
36380;BME280;22411;53.016;18.632;2022-11-12T09:13:22;102284.41;;;10.39;100.00
36380;BME280;22411;53.016;18.632;2022-11-12T09:15:48;102284.19;;;10.43;100.00
36380;BME280;22411;53.016;18.632;2022-11-12T09:18:16;102293.53;;;10.47;100.00
36380;BME280;22411;53.016;18.632;2022-11-12T09:20:43;102285.91;;;10.44;100.00
36380;BME280;22411;53.016;18.632;2022-11-12T09:23:14;102288.50;;;10.44;100.00
36380;BME280;22411;53.016;18.632;2022-11-12T09:25:40;102278.91;;;10.46;100.00
36380;BME280;22411;53.016;18.632;2022-11-12T09:28:15;102289.94;;;10.52;100.00
36380;BME280;22411;53.016;18.632;2022-11-12T09:30:52;102291.50;;;10.56;100.00
36380;BME280;22411;53.016;18.632;2022-11-12T09:33:23;102287.94;;;10.58;100.00
36380;BME280;22411;53.016;18.632;2022-11-12T09:35:50;102294.69;;;10.62;100.00
36380;BME280;22411;53.016;18.632;2022-11-12T09:38:17;102297.09;;;10.67;100.00
36380;BME280;22411;53.016;18.632;2022-11-12T09:43:38;102297.69;;;10.73;100.00
36380;BME280;22411;53.016;18.632;2022-11-12T09:46:30;102294.16;;;10.76;100.00
36380;BME280;22411;53.016;18.632;2022-11-12T09:49:03;102296.75;;;10.76;100.00
36380;BME280;22411;53.016;18.632;2022-11-12T09:51:35;102299.91;;;10.83;100.00
36380;BME280;22411;53.016;18.632;2022-11-12T09:54:18;102299.19;;;10.79;100.00
36380;BME280;22411;53.016;18.632;2022-11-12T09:56:47;102294.81;;;10.81;100.00
36380;BME280;22411;53.016;18.632;2022-11-12T09:59:14;102286.03;;;10.84;100.00
36380;BME280;22411;53.016;18.632;2022-11-12T10:01:50;102281.50;;;10.89;100.00
36380;BME280;22411;53.016;18.632;2022-11-12T10:04:51;102292.91;;;10.85;100.00
36380;BME280;22411;53.016;18.632;2022-11-12T10:10:19;102293.25;;;10.97;100.00
36380;BME280;22411;53.016;18.632;2022-11-12T10:13:13;102281.97;;;10.98;100.00
36380;BME280;22411;53.016;18.632;2022-11-12T10:18:47;102287.88;;;11.02;100.00
36380;BME280;22411;53.016;18.632;2022-11-12T10:23:46;102281.06;;;10.99;100.00
36380;BME280;22411;53.016;18.632;2022-11-12T10:26:16;102281.97;;;10.98;100.00
36380;BME280;22411;53.016;18.632;2022-11-12T10:31:16;102281.69;;;11.05;100.00
36380;BME280;22411;53.016;18.632;2022-11-12T10:33:42;102282.53;;;11.05;100.00
36380;BME280;22411;53.016;18.632;2022-11-12T10:36:33;102276.97;;;11.14;100.00
36380;BME280;22411;53.016;18.632;2022-11-12T10:39:00;102276.97;;;11.14;100.00
36380;BME280;22411;53.016;18.632;2022-11-12T10:41:29;102278.56;;;11.17;100.00
36380;BME280;22411;53.016;18.632;2022-11-12T10:46:38;102275.59;;;11.26;100.00
36380;BME280;22411;53.016;18.632;2022-11-12T10:51:40;102267.50;;;11.34;100.00
36380;BME280;22411;53.016;18.632;2022-11-12T10:56:53;102265.31;;;11.43;100.00
36380;BME280;22411;53.016;18.632;2022-11-12T10:59:23;102267.84;;;11.45;100.00
36380;BME280;22411;53.016;18.632;2022-11-12T11:01:55;102257.13;;;11.52;100.00
36380;BME280;22411;53.016;18.632;2022-11-12T11:07:23;102242.59;;;11.67;100.00
36380;BME280;22411;53.016;18.632;2022-11-12T11:10:25;102257.56;;;11.62;100.00
36380;BME280;22411;53.016;18.632;2022-11-12T11:15:34;102259.38;;;11.60;100.00
36380;BME280;22411;53.016;18.632;2022-11-12T11:18:00;102255.09;;;11.59;100.00
36380;BME280;22411;53.016;18.632;2022-11-12T11:20:49;102256.63;;;11.63;100.00
36380;BME280;22411;53.016;18.632;2022-11-12T11:23:29;102255.09;;;11.59;100.00
36380;BME280;22411;53.016;18.632;2022-11-12T11:26:12;102268.84;;;11.61;100.00
36380;BME280;22411;53.016;18.632;2022-11-12T11:28:59;102262.53;;;11.67;100.00
36380;BME280;22411;53.016;18.632;2022-11-12T11:31:39;102262.88;;;11.59;100.00
36380;BME280;22411;53.016;18.632;2022-11-12T11:34:30;102248.22;;;11.58;100.00
36380;BME280;22411;53.016;18.632;2022-11-12T11:37:21;102249.88;;;11.59;100.00
36380;BME280;22411;53.016;18.632;2022-11-12T11:56:42;102250.59;;;11.63;100.00
36380;BME280;22411;53.016;18.632;2022-11-12T12:25:52;102252.25;;;11.84;100.00
36380;BME280;22411;53.016;18.632;2022-11-12T12:31:09;102262.50;;;11.87;100.00
36380;BME280;22411;53.016;18.632;2022-11-12T12:33:44;102258.84;;;11.91;100.00
36380;BME280;22411;53.016;18.632;2022-11-12T12:36:16;102255.28;;;11.94;100.00
36380;BME280;22411;53.016;18.632;2022-11-12T12:38:51;102262.16;;;11.95;100.00
36380;BME280;22411;53.016;18.632;2022-11-12T12:41:24;102251.19;;;11.88;100.00
36380;BME280;22411;53.016;18.632;2022-11-12T12:44:03;102254.63;;;11.89;100.00
36380;BME280;22411;53.016;18.632;2022-11-12T12:46:36;102249.44;;;11.89;100.00
36380;BME280;22411;53.016;18.632;2022-11-12T12:49:05;102264.81;;;11.93;100.00
36380;BME280;22411;53.016;18.632;2022-11-12T12:51:33;102268.06;;;11.98;100.00
36380;BME280;22411;53.016;18.632;2022-11-12T12:53:59;102257.75;;;11.97;100.00
36380;BME280;22411;53.016;18.632;2022-11-12T12:58:59;102262.66;;;12.03;100.00
36380;BME280;22411;53.016;18.632;2022-11-12T13:01:33;102261.56;;;12.07;100.00
36380;BME280;22411;53.016;18.632;2022-11-12T13:04:04;102265.16;;;12.04;100.00
36380;BME280;22411;53.016;18.632;2022-11-12T13:06:36;102260.72;;;12.07;100.00
36380;BME280;22411;53.016;18.632;2022-11-12T13:09:05;102267.97;;;12.00;100.00
36380;BME280;22411;53.016;18.632;2022-11-12T13:20:15;102255.19;;;11.95;100.00
36380;BME280;22411;53.016;18.632;2022-11-12T13:37:53;102266.50;;;11.94;100.00
36380;BME280;22411;53.016;18.632;2022-11-12T13:40:49;102260.47;;;11.94;100.00
36380;BME280;22411;53.016;18.632;2022-11-12T13:43:39;102256.59;;;12.02;100.00
36380;BME280;22411;53.016;18.632;2022-11-12T13:46:30;102262.06;;;11.96;100.00
36380;BME280;22411;53.016;18.632;2022-11-12T13:49:09;102268.81;;;12.00;100.00
36380;BME280;22411;53.016;18.632;2022-11-12T13:51:45;102261.03;;;12.00;100.00
36380;BME280;22411;53.016;18.632;2022-11-12T13:54:43;102266.50;;;11.94;100.00
36380;BME280;22411;53.016;18.632;2022-11-12T13:59:47;102269.31;;;11.90;100.00
36380;BME280;22411;53.016;18.632;2022-11-12T14:02:22;102266.50;;;11.94;100.00
36380;BME280;22411;53.016;18.632;2022-11-12T14:04:52;102263.16;;;11.92;100.00
36380;BME280;22411;53.016;18.632;2022-11-12T14:10:16;102266.16;;;11.83;100.00
36380;BME280;22411;53.016;18.632;2022-11-12T14:15:55;102264.94;;;11.90;100.00
36380;BME280;22411;53.016;18.632;2022-11-12T14:21:23;102259.91;;;11.87;100.00
36380;BME280;22411;53.016;18.632;2022-11-12T14:23:49;102268.69;;;11.85;100.00
36380;BME280;22411;53.016;18.632;2022-11-12T14:26:37;102265.31;;;11.83;100.00
36380;BME280;22411;53.016;18.632;2022-11-12T14:29:03;102262.50;;;11.87;100.00
36380;BME280;22411;53.016;18.632;2022-11-12T14:31:30;102267.72;;;11.87;100.00
36380;BME280;22411;53.016;18.632;2022-11-12T14:34:29;102267.91;;;11.83;100.00
36380;BME280;22411;53.016;18.632;2022-11-12T14:36:58;102268.84;;;11.82;100.00
36380;BME280;22411;53.016;18.632;2022-11-12T14:39:26;102274.13;;;11.78;100.00
36380;BME280;22411;53.016;18.632;2022-11-12T14:41:55;102281.00;;;11.79;100.00
36380;BME280;22411;53.016;18.632;2022-11-12T14:44:35;102282.69;;;11.81;100.00
36380;BME280;22411;53.016;18.632;2022-11-12T14:47:02;102276.00;;;11.75;100.00
36380;BME280;22411;53.016;18.632;2022-11-12T14:52:21;102276.84;;;11.75;100.00
36380;BME280;22411;53.016;18.632;2022-11-12T14:54:51;102276.09;;;11.73;100.00